sensor_id;sensor_type;location;lat;lon;timestamp;P1;durP1;ratioP1;P2;durP2;ratioP2
85102;SDS011;75452;44.106;3.074;2024-03-02T00:00:15;3.15;;;2.88;;
85102;SDS011;75452;44.106;3.074;2024-03-02T00:02:44;3.40;;;3.10;;
85102;SDS011;75452;44.106;3.074;2024-03-02T00:05:10;2.80;;;2.60;;
85102;SDS011;75452;44.106;3.074;2024-03-02T00:07:36;3.70;;;3.40;;
85102;SDS011;75452;44.106;3.074;2024-03-02T00:10:05;3.08;;;2.83;;
85102;SDS011;75452;44.106;3.074;2024-03-02T00:12:34;2.50;;;2.30;;
85102;SDS011;75452;44.106;3.074;2024-03-02T00:15:04;2.97;;;2.78;;
85102;SDS011;75452;44.106;3.074;2024-03-02T00:17:31;3.17;;;2.83;;
85102;SDS011;75452;44.106;3.074;2024-03-02T00:19:56;2.60;;;2.40;;
85102;SDS011;75452;44.106;3.074;2024-03-02T00:22:22;2.63;;;2.42;;
85102;SDS011;75452;44.106;3.074;2024-03-02T00:24:47;2.40;;;2.30;;
85102;SDS011;75452;44.106;3.074;2024-03-02T00:27:12;2.53;;;2.33;;
85102;SDS011;75452;44.106;3.074;2024-03-02T00:29:40;3.20;;;2.90;;
85102;SDS011;75452;44.106;3.074;2024-03-02T00:32:09;3.30;;;3.10;;
85102;SDS011;75452;44.106;3.074;2024-03-02T00:34:38;4.03;;;3.30;;
85102;SDS011;75452;44.106;3.074;2024-03-02T00:37:03;3.17;;;2.90;;
85102;SDS011;75452;44.106;3.074;2024-03-02T00:39:28;3.60;;;3.30;;
85102;SDS011;75452;44.106;3.074;2024-03-02T00:41:54;3.20;;;2.90;;
85102;SDS011;75452;44.106;3.074;2024-03-02T00:44:20;2.88;;;2.67;;
85102;SDS011;75452;44.106;3.074;2024-03-02T00:46:50;3.13;;;2.92;;
85102;SDS011;75452;44.106;3.074;2024-03-02T00:49:22;3.22;;;2.92;;
85102;SDS011;75452;44.106;3.074;2024-03-02T00:51:49;2.92;;;2.72;;
85102;SDS011;75452;44.106;3.074;2024-03-02T00:54:15;2.92;;;2.72;;
85102;SDS011;75452;44.106;3.074;2024-03-02T00:56:44;2.63;;;2.42;;
85102;SDS011;75452;44.106;3.074;2024-03-02T00:59:10;3.08;;;2.85;;
85102;SDS011;75452;44.106;3.074;2024-03-02T01:01:36;2.70;;;2.50;;
85102;SDS011;75452;44.106;3.074;2024-03-02T01:04:01;3.05;;;2.83;;
85102;SDS011;75452;44.106;3.074;2024-03-02T01:06:26;2.90;;;2.70;;
85102;SDS011;75452;44.106;3.074;2024-03-02T01:08:52;2.88;;;2.65;;
85102;SDS011;75452;44.106;3.074;2024-03-02T01:11:18;2.90;;;2.60;;
85102;SDS011;75452;44.106;3.074;2024-03-02T01:13:44;2.90;;;2.70;;
85102;SDS011;75452;44.106;3.074;2024-03-02T01:16:11;2.50;;;2.30;;
85102;SDS011;75452;44.106;3.074;2024-03-02T01:18:36;2.70;;;2.50;;
85102;SDS011;75452;44.106;3.074;2024-03-02T01:21:02;5.22;;;2.53;;
85102;SDS011;75452;44.106;3.074;2024-03-02T01:23:27;2.47;;;2.30;;
85102;SDS011;75452;44.106;3.074;2024-03-02T01:25:53;2.65;;;2.45;;
85102;SDS011;75452;44.106;3.074;2024-03-02T01:28:18;2.72;;;2.55;;
85102;SDS011;75452;44.106;3.074;2024-03-02T01:30:45;2.72;;;2.53;;
85102;SDS011;75452;44.106;3.074;2024-03-02T01:33:11;2.05;;;1.95;;
85102;SDS011;75452;44.106;3.074;2024-03-02T01:35:36;2.70;;;2.50;;
85102;SDS011;75452;44.106;3.074;2024-03-02T01:38:02;2.58;;;2.35;;
85102;SDS011;75452;44.106;3.074;2024-03-02T01:40:28;2.70;;;2.50;;
85102;SDS011;75452;44.106;3.074;2024-03-02T01:42:53;2.13;;;1.92;;
85102;SDS011;75452;44.106;3.074;2024-03-02T01:45:19;2.35;;;2.15;;
85102;SDS011;75452;44.106;3.074;2024-03-02T01:47:45;2.20;;;2.10;;
85102;SDS011;75452;44.106;3.074;2024-03-02T01:50:13;2.30;;;2.13;;
85102;SDS011;75452;44.106;3.074;2024-03-02T01:52:39;2.33;;;2.17;;
85102;SDS011;75452;44.106;3.074;2024-03-02T01:55:05;2.80;;;2.20;;
85102;SDS011;75452;44.106;3.074;2024-03-02T01:57:31;2.30;;;2.10;;
85102;SDS011;75452;44.106;3.074;2024-03-02T01:59:57;2.17;;;1.98;;
85102;SDS011;75452;44.106;3.074;2024-03-02T02:02:22;1.88;;;1.77;;
85102;SDS011;75452;44.106;3.074;2024-03-02T02:04:48;2.42;;;2.22;;
85102;SDS011;75452;44.106;3.074;2024-03-02T02:07:13;2.20;;;2.00;;
85102;SDS011;75452;44.106;3.074;2024-03-02T02:09:40;3.13;;;2.15;;
85102;SDS011;75452;44.106;3.074;2024-03-02T02:12:07;2.28;;;2.08;;
85102;SDS011;75452;44.106;3.074;2024-03-02T02:14:32;2.35;;;1.75;;
85102;SDS011;75452;44.106;3.074;2024-03-02T02:16:58;2.25;;;2.05;;
85102;SDS011;75452;44.106;3.074;2024-03-02T02:19:24;2.45;;;2.15;;
85102;SDS011;75452;44.106;3.074;2024-03-02T02:21:49;1.85;;;1.75;;
85102;SDS011;75452;44.106;3.074;2024-03-02T02:24:14;2.30;;;2.10;;
85102;SDS011;75452;44.106;3.074;2024-03-02T02:26:40;2.10;;;1.90;;
85102;SDS011;75452;44.106;3.074;2024-03-02T02:29:05;2.15;;;2.05;;
85102;SDS011;75452;44.106;3.074;2024-03-02T02:31:39;2.25;;;2.05;;
85102;SDS011;75452;44.106;3.074;2024-03-02T02:34:06;1.88;;;1.77;;
85102;SDS011;75452;44.106;3.074;2024-03-02T02:36:32;1.83;;;1.60;;
85102;SDS011;75452;44.106;3.074;2024-03-02T02:38:58;2.20;;;2.10;;
85102;SDS011;75452;44.106;3.074;2024-03-02T02:41:28;2.83;;;2.10;;
85102;SDS011;75452;44.106;3.074;2024-03-02T02:43:53;1.65;;;1.55;;
85102;SDS011;75452;44.106;3.074;2024-03-02T02:46:19;2.33;;;1.85;;
85102;SDS011;75452;44.106;3.074;2024-03-02T02:48:44;1.60;;;1.50;;
85102;SDS011;75452;44.106;3.074;2024-03-02T02:51:10;2.97;;;1.92;;
85102;SDS011;75452;44.106;3.074;2024-03-02T02:53:35;2.20;;;1.88;;
85102;SDS011;75452;44.106;3.074;2024-03-02T02:56:00;2.00;;;1.80;;
85102;SDS011;75452;44.106;3.074;2024-03-02T02:58:26;3.05;;;2.00;;
85102;SDS011;75452;44.106;3.074;2024-03-02T03:00:52;1.75;;;1.65;;
85102;SDS011;75452;44.106;3.074;2024-03-02T03:03:19;1.48;;;1.25;;
85102;SDS011;75452;44.106;3.074;2024-03-02T03:05:45;2.28;;;1.83;;
85102;SDS011;75452;44.106;3.074;2024-03-02T03:08:10;1.60;;;1.50;;
85102;SDS011;75452;44.106;3.074;2024-03-02T03:10:35;2.03;;;1.85;;
85102;SDS011;75452;44.106;3.074;2024-03-02T03:13:01;2.17;;;1.63;;
85102;SDS011;75452;44.106;3.074;2024-03-02T03:15:27;1.67;;;1.58;;
85102;SDS011;75452;44.106;3.074;2024-03-02T03:17:52;2.05;;;1.90;;
85102;SDS011;75452;44.106;3.074;2024-03-02T03:20:18;2.45;;;1.75;;
85102;SDS011;75452;44.106;3.074;2024-03-02T03:22:44;1.52;;;1.42;;
85102;SDS011;75452;44.106;3.074;2024-03-02T03:25:10;1.52;;;1.42;;
85102;SDS011;75452;44.106;3.074;2024-03-02T03:27:35;3.28;;;1.98;;
85102;SDS011;75452;44.106;3.074;2024-03-02T03:30:00;1.40;;;1.30;;
85102;SDS011;75452;44.106;3.074;2024-03-02T03:32:26;1.70;;;1.60;;
85102;SDS011;75452;44.106;3.074;2024-03-02T03:34:51;1.40;;;1.30;;
85102;SDS011;75452;44.106;3.074;2024-03-02T03:37:17;1.42;;;1.33;;
85102;SDS011;75452;44.106;3.074;2024-03-02T03:39:42;1.65;;;1.55;;
85102;SDS011;75452;44.106;3.074;2024-03-02T03:42:07;1.73;;;1.63;;
85102;SDS011;75452;44.106;3.074;2024-03-02T03:44:33;1.42;;;1.33;;
85102;SDS011;75452;44.106;3.074;2024-03-02T03:46:59;1.75;;;1.42;;
85102;SDS011;75452;44.106;3.074;2024-03-02T03:49:27;1.08;;;0.98;;
85102;SDS011;75452;44.106;3.074;2024-03-02T03:51:53;1.45;;;1.35;;
85102;SDS011;75452;44.106;3.074;2024-03-02T03:54:18;1.50;;;1.40;;
85102;SDS011;75452;44.106;3.074;2024-03-02T03:56:43;1.50;;;1.40;;
85102;SDS011;75452;44.106;3.074;2024-03-02T03:59:09;1.52;;;1.30;;
85102;SDS011;75452;44.106;3.074;2024-03-02T04:01:34;2.28;;;1.98;;
85102;SDS011;75452;44.106;3.074;2024-03-02T04:03:59;1.60;;;1.50;;
85102;SDS011;75452;44.106;3.074;2024-03-02T04:06:27;1.65;;;1.55;;
85102;SDS011;75452;44.106;3.074;2024-03-02T04:08:52;1.73;;;1.63;;
85102;SDS011;75452;44.106;3.074;2024-03-02T04:11:18;1.98;;;1.88;;
85102;SDS011;75452;44.106;3.074;2024-03-02T04:13:43;1.52;;;1.42;;
85102;SDS011;75452;44.106;3.074;2024-03-02T04:16:08;1.70;;;1.60;;
85102;SDS011;75452;44.106;3.074;2024-03-02T04:18:34;1.65;;;1.55;;
85102;SDS011;75452;44.106;3.074;2024-03-02T04:21:00;1.60;;;1.50;;
85102;SDS011;75452;44.106;3.074;2024-03-02T04:23:26;1.30;;;1.20;;
85102;SDS011;75452;44.106;3.074;2024-03-02T04:25:51;1.50;;;1.40;;
85102;SDS011;75452;44.106;3.074;2024-03-02T04:28:16;1.42;;;1.33;;
85102;SDS011;75452;44.106;3.074;2024-03-02T04:30:42;1.92;;;1.55;;
85102;SDS011;75452;44.106;3.074;2024-03-02T04:33:07;2.13;;;1.92;;
85102;SDS011;75452;44.106;3.074;2024-03-02T04:35:35;1.50;;;1.27;;
85102;SDS011;75452;44.106;3.074;2024-03-02T04:38:03;1.50;;;1.40;;
85102;SDS011;75452;44.106;3.074;2024-03-02T04:40:28;1.25;;;1.17;;
85102;SDS011;75452;44.106;3.074;2024-03-02T04:42:54;1.45;;;1.30;;
85102;SDS011;75452;44.106;3.074;2024-03-02T04:45:19;1.50;;;1.40;;
85102;SDS011;75452;44.106;3.074;2024-03-02T04:47:45;2.00;;;1.90;;
85102;SDS011;75452;44.106;3.074;2024-03-02T04:50:10;1.52;;;1.30;;
85102;SDS011;75452;44.106;3.074;2024-03-02T04:52:36;2.03;;;1.80;;
85102;SDS011;75452;44.106;3.074;2024-03-02T04:55:01;1.80;;;1.70;;
85102;SDS011;75452;44.106;3.074;2024-03-02T04:57:42;1.63;;;1.52;;
85102;SDS011;75452;44.106;3.074;2024-03-02T05:00:08;1.42;;;1.33;;
85102;SDS011;75452;44.106;3.074;2024-03-02T05:02:34;1.42;;;1.20;;
85102;SDS011;75452;44.106;3.074;2024-03-02T05:05:00;1.85;;;1.67;;
85102;SDS011;75452;44.106;3.074;2024-03-02T05:07:25;1.50;;;1.30;;
85102;SDS011;75452;44.106;3.074;2024-03-02T05:09:50;1.60;;;1.33;;
85102;SDS011;75452;44.106;3.074;2024-03-02T05:12:16;1.27;;;1.13;;
85102;SDS011;75452;44.106;3.074;2024-03-02T05:15:02;1.55;;;1.40;;
85102;SDS011;75452;44.106;3.074;2024-03-02T05:17:28;1.85;;;1.70;;
85102;SDS011;75452;44.106;3.074;2024-03-02T05:19:54;1.52;;;1.42;;
85102;SDS011;75452;44.106;3.074;2024-03-02T05:22:19;1.17;;;1.00;;
85102;SDS011;75452;44.106;3.074;2024-03-02T05:24:44;1.90;;;1.35;;
85102;SDS011;75452;44.106;3.074;2024-03-02T05:27:10;1.65;;;1.27;;
85102;SDS011;75452;44.106;3.074;2024-03-02T05:29:35;1.40;;;1.30;;
85102;SDS011;75452;44.106;3.074;2024-03-02T05:32:01;1.73;;;1.63;;
85102;SDS011;75452;44.106;3.074;2024-03-02T05:34:26;1.55;;;1.45;;
85102;SDS011;75452;44.106;3.074;2024-03-02T05:36:51;1.60;;;1.50;;
85102;SDS011;75452;44.106;3.074;2024-03-02T05:39:17;1.60;;;1.35;;
85102;SDS011;75452;44.106;3.074;2024-03-02T05:41:42;1.20;;;1.10;;
85102;SDS011;75452;44.106;3.074;2024-03-02T05:44:07;1.30;;;1.20;;
85102;SDS011;75452;44.106;3.074;2024-03-02T05:46:33;1.58;;;1.40;;
85102;SDS011;75452;44.106;3.074;2024-03-02T05:48:59;2.33;;;1.30;;
85102;SDS011;75452;44.106;3.074;2024-03-02T05:51:25;2.40;;;1.55;;
85102;SDS011;75452;44.106;3.074;2024-03-02T05:53:51;1.20;;;1.10;;
85102;SDS011;75452;44.106;3.074;2024-03-02T05:56:16;1.40;;;1.23;;
85102;SDS011;75452;44.106;3.074;2024-03-02T05:58:42;2.03;;;1.40;;
85102;SDS011;75452;44.106;3.074;2024-03-02T06:01:25;1.38;;;1.27;;
85102;SDS011;75452;44.106;3.074;2024-03-02T06:03:56;1.60;;;1.50;;
85102;SDS011;75452;44.106;3.074;2024-03-02T06:06:22;1.45;;;1.35;;
85102;SDS011;75452;44.106;3.074;2024-03-02T06:08:48;1.73;;;1.63;;
85102;SDS011;75452;44.106;3.074;2024-03-02T06:11:13;1.35;;;1.25;;
85102;SDS011;75452;44.106;3.074;2024-03-02T06:13:38;1.13;;;1.10;;
85102;SDS011;75452;44.106;3.074;2024-03-02T06:16:04;1.92;;;1.83;;
85102;SDS011;75452;44.106;3.074;2024-03-02T06:18:30;1.30;;;1.20;;
85102;SDS011;75452;44.106;3.074;2024-03-02T06:20:55;1.30;;;1.20;;
85102;SDS011;75452;44.106;3.074;2024-03-02T06:23:20;1.65;;;1.55;;
85102;SDS011;75452;44.106;3.074;2024-03-02T06:25:46;1.65;;;1.55;;
85102;SDS011;75452;44.106;3.074;2024-03-02T06:28:11;1.63;;;1.20;;
85102;SDS011;75452;44.106;3.074;2024-03-02T06:30:36;1.25;;;1.15;;
85102;SDS011;75452;44.106;3.074;2024-03-02T06:33:02;1.50;;;1.40;;
85102;SDS011;75452;44.106;3.074;2024-03-02T06:35:28;1.13;;;1.02;;
85102;SDS011;75452;44.106;3.074;2024-03-02T06:37:54;1.27;;;1.20;;
85102;SDS011;75452;44.106;3.074;2024-03-02T06:40:20;1.08;;;1.08;;
85102;SDS011;75452;44.106;3.074;2024-03-02T06:42:46;1.25;;;1.15;;
85102;SDS011;75452;44.106;3.074;2024-03-02T06:45:11;1.30;;;1.15;;
85102;SDS011;75452;44.106;3.074;2024-03-02T06:47:37;1.95;;;1.65;;
85102;SDS011;75452;44.106;3.074;2024-03-02T06:50:02;1.63;;;1.52;;
85102;SDS011;75452;44.106;3.074;2024-03-02T06:52:27;1.73;;;1.63;;
85102;SDS011;75452;44.106;3.074;2024-03-02T06:54:53;1.70;;;1.48;;
85102;SDS011;75452;44.106;3.074;2024-03-02T06:57:18;1.58;;;1.45;;
85102;SDS011;75452;44.106;3.074;2024-03-02T06:59:45;2.25;;;2.10;;
85102;SDS011;75452;44.106;3.074;2024-03-02T07:02:11;1.50;;;1.40;;
85102;SDS011;75452;44.106;3.074;2024-03-02T07:04:37;2.03;;;1.67;;
85102;SDS011;75452;44.106;3.074;2024-03-02T07:07:02;1.73;;;1.63;;
85102;SDS011;75452;44.106;3.074;2024-03-02T07:09:28;2.03;;;1.90;;
85102;SDS011;75452;44.106;3.074;2024-03-02T07:11:53;2.03;;;1.88;;
85102;SDS011;75452;44.106;3.074;2024-03-02T07:14:19;2.17;;;1.98;;
85102;SDS011;75452;44.106;3.074;2024-03-02T07:16:44;1.90;;;1.80;;
85102;SDS011;75452;44.106;3.074;2024-03-02T07:19:09;2.30;;;2.00;;
85102;SDS011;75452;44.106;3.074;2024-03-02T07:21:35;2.92;;;2.25;;
85102;SDS011;75452;44.106;3.074;2024-03-02T07:24:00;2.20;;;2.00;;
85102;SDS011;75452;44.106;3.074;2024-03-02T07:26:28;1.77;;;1.58;;
85102;SDS011;75452;44.106;3.074;2024-03-02T07:28:55;2.47;;;2.28;;
85102;SDS011;75452;44.106;3.074;2024-03-02T07:31:20;1.90;;;1.77;;
85102;SDS011;75452;44.106;3.074;2024-03-02T07:33:45;1.80;;;1.70;;
85102;SDS011;75452;44.106;3.074;2024-03-02T07:36:11;2.35;;;1.88;;
85102;SDS011;75452;44.106;3.074;2024-03-02T07:38:37;2.00;;;1.90;;
85102;SDS011;75452;44.106;3.074;2024-03-02T07:41:02;2.30;;;2.20;;
85102;SDS011;75452;44.106;3.074;2024-03-02T07:43:29;2.13;;;1.92;;
85102;SDS011;75452;44.106;3.074;2024-03-02T07:45:56;2.53;;;2.03;;
85102;SDS011;75452;44.106;3.074;2024-03-02T07:48:22;2.00;;;1.90;;
85102;SDS011;75452;44.106;3.074;2024-03-02T07:50:47;2.03;;;1.67;;
85102;SDS011;75452;44.106;3.074;2024-03-02T07:53:12;1.80;;;1.70;;
85102;SDS011;75452;44.106;3.074;2024-03-02T07:55:39;1.85;;;1.75;;
85102;SDS011;75452;44.106;3.074;2024-03-02T07:58:05;1.98;;;1.77;;
85102;SDS011;75452;44.106;3.074;2024-03-02T08:00:31;1.90;;;1.70;;
85102;SDS011;75452;44.106;3.074;2024-03-02T08:02:56;1.48;;;1.38;;
85102;SDS011;75452;44.106;3.074;2024-03-02T08:05:22;1.85;;;1.75;;
85102;SDS011;75452;44.106;3.074;2024-03-02T08:07:47;1.80;;;1.70;;
85102;SDS011;75452;44.106;3.074;2024-03-02T08:10:13;1.75;;;1.45;;
85102;SDS011;75452;44.106;3.074;2024-03-02T08:12:39;1.70;;;1.60;;
85102;SDS011;75452;44.106;3.074;2024-03-02T08:15:04;2.13;;;1.63;;
85102;SDS011;75452;44.106;3.074;2024-03-02T08:17:30;1.58;;;1.48;;
85102;SDS011;75452;44.106;3.074;2024-03-02T08:19:56;1.63;;;1.52;;
85102;SDS011;75452;44.106;3.074;2024-03-02T08:22:21;1.50;;;1.40;;
85102;SDS011;75452;44.106;3.074;2024-03-02T08:24:47;1.58;;;1.48;;
85102;SDS011;75452;44.106;3.074;2024-03-02T08:27:13;1.75;;;1.40;;
85102;SDS011;75452;44.106;3.074;2024-03-02T08:29:39;2.95;;;1.60;;
85102;SDS011;75452;44.106;3.074;2024-03-02T08:32:05;3.03;;;1.33;;
85102;SDS011;75452;44.106;3.074;2024-03-02T08:34:31;1.80;;;1.63;;
85102;SDS011;75452;44.106;3.074;2024-03-02T08:36:56;2.03;;;1.50;;
85102;SDS011;75452;44.106;3.074;2024-03-02T08:39:21;3.15;;;1.30;;
85102;SDS011;75452;44.106;3.074;2024-03-02T08:41:47;1.65;;;1.25;;
85102;SDS011;75452;44.106;3.074;2024-03-02T08:44:13;1.35;;;1.17;;
85102;SDS011;75452;44.106;3.074;2024-03-02T08:46:39;1.38;;;1.25;;
85102;SDS011;75452;44.106;3.074;2024-03-02T08:49:05;1.58;;;1.48;;
85102;SDS011;75452;44.106;3.074;2024-03-02T08:51:31;1.25;;;1.13;;
85102;SDS011;75452;44.106;3.074;2024-03-02T08:53:57;1.27;;;1.17;;
85102;SDS011;75452;44.106;3.074;2024-03-02T08:56:23;1.27;;;1.13;;
85102;SDS011;75452;44.106;3.074;2024-03-02T08:58:49;1.50;;;1.17;;
85102;SDS011;75452;44.106;3.074;2024-03-02T09:01:15;1.15;;;1.13;;
85102;SDS011;75452;44.106;3.074;2024-03-02T09:03:41;2.20;;;1.40;;
85102;SDS011;75452;44.106;3.074;2024-03-02T09:06:09;1.65;;;1.10;;
85102;SDS011;75452;44.106;3.074;2024-03-02T09:08:35;1.98;;;1.30;;
85102;SDS011;75452;44.106;3.074;2024-03-02T09:11:01;1.33;;;1.15;;
85102;SDS011;75452;44.106;3.074;2024-03-02T09:13:27;1.20;;;1.10;;
85102;SDS011;75452;44.106;3.074;2024-03-02T09:15:53;3.38;;;1.20;;
85102;SDS011;75452;44.106;3.074;2024-03-02T09:18:18;2.08;;;1.42;;
85102;SDS011;75452;44.106;3.074;2024-03-02T09:20:43;1.52;;;0.95;;
85102;SDS011;75452;44.106;3.074;2024-03-02T09:23:09;1.42;;;1.20;;
85102;SDS011;75452;44.106;3.074;2024-03-02T09:25:34;1.38;;;1.27;;
85102;SDS011;75452;44.106;3.074;2024-03-02T09:28:00;1.38;;;1.10;;
85102;SDS011;75452;44.106;3.074;2024-03-02T09:30:25;1.95;;;1.17;;
85102;SDS011;75452;44.106;3.074;2024-03-02T09:32:50;1.90;;;1.20;;
85102;SDS011;75452;44.106;3.074;2024-03-02T09:35:16;1.20;;;1.10;;
85102;SDS011;75452;44.106;3.074;2024-03-02T09:37:41;1.40;;;1.30;;
85102;SDS011;75452;44.106;3.074;2024-03-02T09:40:07;1.30;;;1.17;;
85102;SDS011;75452;44.106;3.074;2024-03-02T09:42:32;1.33;;;1.17;;
85102;SDS011;75452;44.106;3.074;2024-03-02T09:44:58;1.45;;;1.08;;
85102;SDS011;75452;44.106;3.074;2024-03-02T09:47:23;1.10;;;1.00;;
85102;SDS011;75452;44.106;3.074;2024-03-02T09:49:49;1.05;;;0.82;;
85102;SDS011;75452;44.106;3.074;2024-03-02T09:52:14;1.25;;;0.95;;
85102;SDS011;75452;44.106;3.074;2024-03-02T09:54:41;1.15;;;0.90;;
85102;SDS011;75452;44.106;3.074;2024-03-02T09:57:06;2.65;;;1.48;;
85102;SDS011;75452;44.106;3.074;2024-03-02T09:59:32;1.77;;;1.08;;
85102;SDS011;75452;44.106;3.074;2024-03-02T10:01:58;1.33;;;0.90;;
85102;SDS011;75452;44.106;3.074;2024-03-02T10:04:25;1.77;;;1.52;;
85102;SDS011;75452;44.106;3.074;2024-03-02T10:06:51;1.75;;;1.20;;
85102;SDS011;75452;44.106;3.074;2024-03-02T10:09:28;1.33;;;1.20;;
85102;SDS011;75452;44.106;3.074;2024-03-02T10:12:01;0.80;;;0.80;;
85102;SDS011;75452;44.106;3.074;2024-03-02T10:14:29;2.13;;;1.10;;
85102;SDS011;75452;44.106;3.074;2024-03-02T10:16:54;1.10;;;0.88;;
85102;SDS011;75452;44.106;3.074;2024-03-02T10:19:30;1.92;;;1.08;;
85102;SDS011;75452;44.106;3.074;2024-03-02T10:22:00;1.55;;;1.30;;
85102;SDS011;75452;44.106;3.074;2024-03-02T10:24:27;1.10;;;0.93;;
85102;SDS011;75452;44.106;3.074;2024-03-02T10:26:53;1.15;;;1.05;;
85102;SDS011;75452;44.106;3.074;2024-03-02T10:29:18;1.98;;;0.80;;
85102;SDS011;75452;44.106;3.074;2024-03-02T10:31:44;2.25;;;1.48;;
85102;SDS011;75452;44.106;3.074;2024-03-02T10:34:13;1.65;;;1.48;;
85102;SDS011;75452;44.106;3.074;2024-03-02T10:36:41;1.00;;;0.90;;
85102;SDS011;75452;44.106;3.074;2024-03-02T10:39:08;2.10;;;1.08;;
85102;SDS011;75452;44.106;3.074;2024-03-02T10:41:34;2.35;;;1.55;;
85102;SDS011;75452;44.106;3.074;2024-03-02T10:44:04;1.40;;;1.05;;
85102;SDS011;75452;44.106;3.074;2024-03-02T10:46:31;1.63;;;1.10;;
85102;SDS011;75452;44.106;3.074;2024-03-02T10:48:59;0.85;;;0.85;;
85102;SDS011;75452;44.106;3.074;2024-03-02T10:51:25;1.58;;;1.10;;
85102;SDS011;75452;44.106;3.074;2024-03-02T10:53:52;1.73;;;1.10;;
85102;SDS011;75452;44.106;3.074;2024-03-02T10:56:21;1.02;;;0.93;;
85102;SDS011;75452;44.106;3.074;2024-03-02T10:58:49;1.70;;;1.02;;
85102;SDS011;75452;44.106;3.074;2024-03-02T11:01:16;1.52;;;1.15;;
85102;SDS011;75452;44.106;3.074;2024-03-02T11:03:42;1.13;;;0.90;;
85102;SDS011;75452;44.106;3.074;2024-03-02T11:06:08;2.92;;;1.23;;
85102;SDS011;75452;44.106;3.074;2024-03-02T11:08:35;1.13;;;0.80;;
85102;SDS011;75452;44.106;3.074;2024-03-02T11:11:08;1.10;;;1.00;;
85102;SDS011;75452;44.106;3.074;2024-03-02T11:13:39;1.98;;;1.02;;
85102;SDS011;75452;44.106;3.074;2024-03-02T11:16:12;1.70;;;1.10;;
85102;SDS011;75452;44.106;3.074;2024-03-02T11:19:12;1.75;;;1.20;;
85102;SDS011;75452;44.106;3.074;2024-03-02T11:21:38;0.90;;;0.77;;
85102;SDS011;75452;44.106;3.074;2024-03-02T11:26:52;1.58;;;1.10;;
85102;SDS011;75452;44.106;3.074;2024-03-02T11:32:01;1.38;;;1.02;;
85102;SDS011;75452;44.106;3.074;2024-03-02T11:34:29;1.75;;;1.17;;
85102;SDS011;75452;44.106;3.074;2024-03-02T11:36:54;2.38;;;1.10;;
85102;SDS011;75452;44.106;3.074;2024-03-02T11:39:20;2.63;;;1.17;;
85102;SDS011;75452;44.106;3.074;2024-03-02T11:41:45;1.55;;;1.00;;
85102;SDS011;75452;44.106;3.074;2024-03-02T11:44:10;1.95;;;1.20;;
85102;SDS011;75452;44.106;3.074;2024-03-02T11:46:38;1.17;;;1.08;;
85102;SDS011;75452;44.106;3.074;2024-03-02T11:49:04;1.13;;;1.02;;
85102;SDS011;75452;44.106;3.074;2024-03-02T11:51:30;2.80;;;1.45;;
85102;SDS011;75452;44.106;3.074;2024-03-02T11:53:56;1.98;;;1.13;;
85102;SDS011;75452;44.106;3.074;2024-03-02T11:56:23;1.60;;;1.20;;
85102;SDS011;75452;44.106;3.074;2024-03-02T11:58:49;1.60;;;1.10;;
85102;SDS011;75452;44.106;3.074;2024-03-02T12:01:18;1.73;;;1.08;;
85102;SDS011;75452;44.106;3.074;2024-03-02T12:03:44;1.33;;;0.90;;
85102;SDS011;75452;44.106;3.074;2024-03-02T12:06:10;1.60;;;1.05;;
85102;SDS011;75452;44.106;3.074;2024-03-02T12:08:38;4.38;;;1.30;;
85102;SDS011;75452;44.106;3.074;2024-03-02T12:11:03;1.42;;;1.20;;
85102;SDS011;75452;44.106;3.074;2024-03-02T12:13:29;1.38;;;0.95;;
85102;SDS011;75452;44.106;3.074;2024-03-02T12:15:54;1.90;;;1.00;;
85102;SDS011;75452;44.106;3.074;2024-03-02T12:18:23;1.58;;;1.17;;
85102;SDS011;75452;44.106;3.074;2024-03-02T12:20:50;1.95;;;1.25;;
85102;SDS011;75452;44.106;3.074;2024-03-02T12:23:22;1.67;;;0.88;;
85102;SDS011;75452;44.106;3.074;2024-03-02T12:25:47;1.60;;;1.20;;
85102;SDS011;75452;44.106;3.074;2024-03-02T12:28:14;1.30;;;1.10;;
85102;SDS011;75452;44.106;3.074;2024-03-02T12:30:39;1.63;;;1.27;;
85102;SDS011;75452;44.106;3.074;2024-03-02T12:33:04;2.15;;;1.02;;
85102;SDS011;75452;44.106;3.074;2024-03-02T12:35:30;1.98;;;1.10;;
85102;SDS011;75452;44.106;3.074;2024-03-02T12:37:56;1.92;;;1.23;;
85102;SDS011;75452;44.106;3.074;2024-03-02T12:40:22;1.40;;;1.20;;
85102;SDS011;75452;44.106;3.074;2024-03-02T12:42:47;2.00;;;1.17;;
85102;SDS011;75452;44.106;3.074;2024-03-02T12:45:13;2.72;;;1.00;;
85102;SDS011;75452;44.106;3.074;2024-03-02T12:47:40;1.60;;;1.23;;
85102;SDS011;75452;44.106;3.074;2024-03-02T12:50:06;1.67;;;1.15;;
85102;SDS011;75452;44.106;3.074;2024-03-02T12:52:32;3.10;;;1.52;;
85102;SDS011;75452;44.106;3.074;2024-03-02T12:55:00;2.20;;;1.17;;
85102;SDS011;75452;44.106;3.074;2024-03-02T12:57:28;2.63;;;0.82;;
85102;SDS011;75452;44.106;3.074;2024-03-02T13:00:00;1.30;;;1.00;;
85102;SDS011;75452;44.106;3.074;2024-03-02T13:02:36;1.40;;;1.13;;
85102;SDS011;75452;44.106;3.074;2024-03-02T13:05:04;1.40;;;1.00;;
85102;SDS011;75452;44.106;3.074;2024-03-02T13:07:31;1.67;;;1.00;;
85102;SDS011;75452;44.106;3.074;2024-03-02T13:09:58;2.97;;;1.52;;
85102;SDS011;75452;44.106;3.074;2024-03-02T13:12:24;3.83;;;1.30;;
85102;SDS011;75452;44.106;3.074;2024-03-02T13:14:52;1.95;;;1.40;;
85102;SDS011;75452;44.106;3.074;2024-03-02T13:17:18;2.63;;;1.27;;
85102;SDS011;75452;44.106;3.074;2024-03-02T13:19:51;1.30;;;1.00;;
85102;SDS011;75452;44.106;3.074;2024-03-02T13:22:18;1.33;;;1.10;;
85102;SDS011;75452;44.106;3.074;2024-03-02T13:24:43;3.28;;;1.00;;
85102;SDS011;75452;44.106;3.074;2024-03-02T13:27:09;1.70;;;1.25;;
85102;SDS011;75452;44.106;3.074;2024-03-02T13:29:34;1.80;;;1.05;;
85102;SDS011;75452;44.106;3.074;2024-03-02T13:31:59;1.48;;;0.82;;
85102;SDS011;75452;44.106;3.074;2024-03-02T13:34:25;2.92;;;1.08;;
85102;SDS011;75452;44.106;3.074;2024-03-02T13:36:50;1.35;;;1.25;;
85102;SDS011;75452;44.106;3.074;2024-03-02T13:39:16;1.90;;;1.15;;
85102;SDS011;75452;44.106;3.074;2024-03-02T13:41:41;1.35;;;1.25;;
85102;SDS011;75452;44.106;3.074;2024-03-02T13:44:07;0.98;;;0.82;;
85102;SDS011;75452;44.106;3.074;2024-03-02T13:46:32;1.55;;;0.98;;
85102;SDS011;75452;44.106;3.074;2024-03-02T13:48:57;1.10;;;1.00;;
85102;SDS011;75452;44.106;3.074;2024-03-02T13:51:23;1.23;;;0.80;;
85102;SDS011;75452;44.106;3.074;2024-03-02T13:53:50;1.45;;;0.95;;
85102;SDS011;75452;44.106;3.074;2024-03-02T13:56:15;1.05;;;0.88;;
85102;SDS011;75452;44.106;3.074;2024-03-02T13:58:42;1.23;;;0.98;;
85102;SDS011;75452;44.106;3.074;2024-03-02T14:01:08;0.85;;;0.82;;
85102;SDS011;75452;44.106;3.074;2024-03-02T14:03:34;1.50;;;1.20;;
85102;SDS011;75452;44.106;3.074;2024-03-02T14:05:59;1.48;;;1.38;;
85102;SDS011;75452;44.106;3.074;2024-03-02T14:08:25;2.85;;;1.17;;
85102;SDS011;75452;44.106;3.074;2024-03-02T14:10:50;1.20;;;1.05;;
85102;SDS011;75452;44.106;3.074;2024-03-02T14:13:15;1.30;;;1.00;;
85102;SDS011;75452;44.106;3.074;2024-03-02T14:15:41;1.65;;;1.17;;
85102;SDS011;75452;44.106;3.074;2024-03-02T14:18:07;1.02;;;0.98;;
85102;SDS011;75452;44.106;3.074;2024-03-02T14:20:34;1.38;;;0.98;;
85102;SDS011;75452;44.106;3.074;2024-03-02T14:23:00;1.13;;;1.02;;
85102;SDS011;75452;44.106;3.074;2024-03-02T14:25:27;1.33;;;1.20;;
85102;SDS011;75452;44.106;3.074;2024-03-02T14:27:56;2.03;;;0.88;;
85102;SDS011;75452;44.106;3.074;2024-03-02T14:30:22;2.65;;;1.00;;
85102;SDS011;75452;44.106;3.074;2024-03-02T14:32:48;2.58;;;1.17;;
85102;SDS011;75452;44.106;3.074;2024-03-02T14:35:13;2.25;;;1.00;;
85102;SDS011;75452;44.106;3.074;2024-03-02T14:37:40;2.22;;;0.70;;
85102;SDS011;75452;44.106;3.074;2024-03-02T14:40:05;1.98;;;1.33;;
85102;SDS011;75452;44.106;3.074;2024-03-02T14:42:31;1.83;;;1.15;;
85102;SDS011;75452;44.106;3.074;2024-03-02T14:44:57;1.67;;;1.10;;
85102;SDS011;75452;44.106;3.074;2024-03-02T14:47:22;1.67;;;0.95;;